sensor_id;sensor_type;location;lat;lon;timestamp;P1;durP1;ratioP1;P2;durP2;ratioP2
67272;SDS011;54190;49.770;9.250;2022-07-23T00:00:17;16.73;;;12.30;;
67272;SDS011;54190;49.770;9.250;2022-07-23T00:02:43;14.23;;;11.90;;
67272;SDS011;54190;49.770;9.250;2022-07-23T00:05:10;15.70;;;11.50;;
67272;SDS011;54190;49.770;9.250;2022-07-23T00:07:36;14.33;;;12.10;;
67272;SDS011;54190;49.770;9.250;2022-07-23T00:10:02;14.43;;;11.80;;
67272;SDS011;54190;49.770;9.250;2022-07-23T00:12:28;13.37;;;11.90;;
67272;SDS011;54190;49.770;9.250;2022-07-23T00:14:54;13.43;;;12.13;;
67272;SDS011;54190;49.770;9.250;2022-07-23T00:17:20;13.57;;;12.17;;
67272;SDS011;54190;49.770;9.250;2022-07-23T00:19:45;15.60;;;12.30;;
67272;SDS011;54190;49.770;9.250;2022-07-23T00:22:11;13.43;;;11.93;;
67272;SDS011;54190;49.770;9.250;2022-07-23T00:24:37;16.37;;;11.80;;
67272;SDS011;54190;49.770;9.250;2022-07-23T00:27:02;12.87;;;11.50;;
67272;SDS011;54190;49.770;9.250;2022-07-23T00:29:29;12.80;;;11.50;;
67272;SDS011;54190;49.770;9.250;2022-07-23T00:31:54;15.13;;;12.23;;
67272;SDS011;54190;49.770;9.250;2022-07-23T00:34:20;14.90;;;12.20;;
67272;SDS011;54190;49.770;9.250;2022-07-23T00:36:46;13.80;;;10.90;;
67272;SDS011;54190;49.770;9.250;2022-07-23T00:39:11;13.80;;;11.90;;
67272;SDS011;54190;49.770;9.250;2022-07-23T00:41:37;15.87;;;12.50;;
67272;SDS011;54190;49.770;9.250;2022-07-23T00:46:46;13.50;;;11.67;;
67272;SDS011;54190;49.770;9.250;2022-07-23T00:49:14;13.17;;;11.87;;
67272;SDS011;54190;49.770;9.250;2022-07-23T00:51:41;15.03;;;11.87;;
67272;SDS011;54190;49.770;9.250;2022-07-23T00:54:07;13.63;;;12.10;;
67272;SDS011;54190;49.770;9.250;2022-07-23T00:56:33;13.03;;;11.33;;
67272;SDS011;54190;49.770;9.250;2022-07-23T00:59:00;17.70;;;11.67;;
67272;SDS011;54190;49.770;9.250;2022-07-23T01:01:26;14.00;;;11.70;;
67272;SDS011;54190;49.770;9.250;2022-07-23T01:03:52;13.60;;;11.50;;
67272;SDS011;54190;49.770;9.250;2022-07-23T01:06:17;13.77;;;12.37;;
67272;SDS011;54190;49.770;9.250;2022-07-23T01:08:43;14.43;;;12.77;;
67272;SDS011;54190;49.770;9.250;2022-07-23T01:11:09;13.70;;;12.30;;
67272;SDS011;54190;49.770;9.250;2022-07-23T01:13:40;15.63;;;11.97;;
67272;SDS011;54190;49.770;9.250;2022-07-23T01:16:07;13.80;;;12.40;;
67272;SDS011;54190;49.770;9.250;2022-07-23T01:18:33;13.40;;;12.00;;
67272;SDS011;54190;49.770;9.250;2022-07-23T01:20:59;16.03;;;11.40;;
67272;SDS011;54190;49.770;9.250;2022-07-23T01:23:25;16.50;;;12.40;;
67272;SDS011;54190;49.770;9.250;2022-07-23T01:25:54;16.03;;;12.40;;
67272;SDS011;54190;49.770;9.250;2022-07-23T01:28:22;13.93;;;12.27;;
67272;SDS011;54190;49.770;9.250;2022-07-23T01:30:48;17.17;;;12.07;;
67272;SDS011;54190;49.770;9.250;2022-07-23T01:33:14;16.57;;;11.97;;
67272;SDS011;54190;49.770;9.250;2022-07-23T01:35:40;12.80;;;11.50;;
67272;SDS011;54190;49.770;9.250;2022-07-23T01:38:07;13.83;;;12.10;;
67272;SDS011;54190;49.770;9.250;2022-07-23T01:40:34;14.03;;;12.30;;
67272;SDS011;54190;49.770;9.250;2022-07-23T01:43:00;16.70;;;13.07;;
67272;SDS011;54190;49.770;9.250;2022-07-23T01:45:26;14.47;;;12.87;;
67272;SDS011;54190;49.770;9.250;2022-07-23T01:47:52;13.57;;;12.17;;
67272;SDS011;54190;49.770;9.250;2022-07-23T01:50:17;15.37;;;12.57;;
67272;SDS011;54190;49.770;9.250;2022-07-23T01:53:02;13.77;;;12.30;;
67272;SDS011;54190;49.770;9.250;2022-07-23T01:55:27;13.30;;;12.00;;
67272;SDS011;54190;49.770;9.250;2022-07-23T01:57:53;14.97;;;12.63;;
67272;SDS011;54190;49.770;9.250;2022-07-23T02:00:21;14.60;;;12.27;;
67272;SDS011;54190;49.770;9.250;2022-07-23T02:02:50;14.53;;;12.63;;
67272;SDS011;54190;49.770;9.250;2022-07-23T02:05:16;15.03;;;12.83;;
67272;SDS011;54190;49.770;9.250;2022-07-23T02:07:44;15.63;;;12.23;;
67272;SDS011;54190;49.770;9.250;2022-07-23T02:10:09;14.40;;;12.90;;
67272;SDS011;54190;49.770;9.250;2022-07-23T02:12:36;15.97;;;12.30;;
67272;SDS011;54190;49.770;9.250;2022-07-23T02:15:02;13.93;;;11.93;;
67272;SDS011;54190;49.770;9.250;2022-07-23T02:17:28;13.33;;;11.80;;
67272;SDS011;54190;49.770;9.250;2022-07-23T02:19:54;14.93;;;12.43;;
67272;SDS011;54190;49.770;9.250;2022-07-23T02:22:20;14.00;;;12.60;;
67272;SDS011;54190;49.770;9.250;2022-07-23T02:24:48;13.70;;;12.30;;
67272;SDS011;54190;49.770;9.250;2022-07-23T02:27:14;18.30;;;12.97;;
67272;SDS011;54190;49.770;9.250;2022-07-23T02:29:40;16.23;;;12.90;;
67272;SDS011;54190;49.770;9.250;2022-07-23T02:32:05;17.57;;;13.30;;
67272;SDS011;54190;49.770;9.250;2022-07-23T02:34:31;15.90;;;12.33;;
67272;SDS011;54190;49.770;9.250;2022-07-23T02:36:57;14.40;;;12.13;;
67272;SDS011;54190;49.770;9.250;2022-07-23T02:39:24;15.27;;;12.17;;
67272;SDS011;54190;49.770;9.250;2022-07-23T02:41:49;15.33;;;12.37;;
67272;SDS011;54190;49.770;9.250;2022-07-23T02:44:15;18.03;;;13.07;;
67272;SDS011;54190;49.770;9.250;2022-07-23T02:46:45;15.50;;;12.60;;
67272;SDS011;54190;49.770;9.250;2022-07-23T02:49:10;15.30;;;11.33;;
67272;SDS011;54190;49.770;9.250;2022-07-23T02:51:36;12.87;;;10.97;;
67272;SDS011;54190;49.770;9.250;2022-07-23T02:54:06;11.20;;;9.97;;
67272;SDS011;54190;49.770;9.250;2022-07-23T02:56:31;12.00;;;10.70;;
67272;SDS011;54190;49.770;9.250;2022-07-23T02:58:57;12.20;;;10.50;;
67272;SDS011;54190;49.770;9.250;2022-07-23T03:01:23;12.17;;;10.87;;
67272;SDS011;54190;49.770;9.250;2022-07-23T03:03:49;12.53;;;11.10;;
67272;SDS011;54190;49.770;9.250;2022-07-23T03:06:14;13.37;;;10.47;;
67272;SDS011;54190;49.770;9.250;2022-07-23T03:08:40;13.90;;;11.20;;
67272;SDS011;54190;49.770;9.250;2022-07-23T03:11:08;12.90;;;10.87;;
67272;SDS011;54190;49.770;9.250;2022-07-23T03:13:37;12.43;;;10.03;;
67272;SDS011;54190;49.770;9.250;2022-07-23T03:16:04;14.07;;;10.53;;
67272;SDS011;54190;49.770;9.250;2022-07-23T03:18:30;11.53;;;10.13;;
67272;SDS011;54190;49.770;9.250;2022-07-23T03:20:56;12.40;;;10.17;;
67272;SDS011;54190;49.770;9.250;2022-07-23T03:23:21;12.50;;;10.20;;
67272;SDS011;54190;49.770;9.250;2022-07-23T03:25:47;12.00;;;10.80;;
67272;SDS011;54190;49.770;9.250;2022-07-23T03:28:16;13.00;;;9.77;;
67272;SDS011;54190;49.770;9.250;2022-07-23T03:30:47;10.90;;;9.77;;
67272;SDS011;54190;49.770;9.250;2022-07-23T03:33:14;10.97;;;9.00;;
67272;SDS011;54190;49.770;9.250;2022-07-23T03:35:45;11.90;;;9.03;;
67272;SDS011;54190;49.770;9.250;2022-07-23T03:38:20;13.83;;;10.40;;
67272;SDS011;54190;49.770;9.250;2022-07-23T03:40:46;10.33;;;9.23;;
67272;SDS011;54190;49.770;9.250;2022-07-23T03:43:12;10.10;;;8.87;;
67272;SDS011;54190;49.770;9.250;2022-07-23T03:45:37;13.10;;;9.43;;
67272;SDS011;54190;49.770;9.250;2022-07-23T03:48:03;11.10;;;9.60;;
67272;SDS011;54190;49.770;9.250;2022-07-23T03:50:35;10.10;;;8.70;;
67272;SDS011;54190;49.770;9.250;2022-07-23T03:53:02;11.10;;;9.20;;
67272;SDS011;54190;49.770;9.250;2022-07-23T03:55:31;13.30;;;9.20;;
67272;SDS011;54190;49.770;9.250;2022-07-23T03:57:56;12.67;;;9.20;;
67272;SDS011;54190;49.770;9.250;2022-07-23T04:00:22;13.40;;;10.80;;
67272;SDS011;54190;49.770;9.250;2022-07-23T04:02:49;10.77;;;9.67;;
67272;SDS011;54190;49.770;9.250;2022-07-23T04:05:15;15.47;;;9.40;;
67272;SDS011;54190;49.770;9.250;2022-07-23T04:07:42;15.97;;;9.20;;
67272;SDS011;54190;49.770;9.250;2022-07-23T04:10:08;11.77;;;9.20;;
67272;SDS011;54190;49.770;9.250;2022-07-23T04:12:34;14.27;;;10.20;;
67272;SDS011;54190;49.770;9.250;2022-07-23T04:15:01;10.27;;;9.00;;
67272;SDS011;54190;49.770;9.250;2022-07-23T04:17:27;13.10;;;8.33;;
67272;SDS011;54190;49.770;9.250;2022-07-23T04:19:53;9.60;;;8.30;;
67272;SDS011;54190;49.770;9.250;2022-07-23T04:22:22;10.30;;;8.53;;
67272;SDS011;54190;49.770;9.250;2022-07-23T04:24:47;9.17;;;7.60;;
67272;SDS011;54190;49.770;9.250;2022-07-23T04:27:14;10.30;;;8.23;;
67272;SDS011;54190;49.770;9.250;2022-07-23T04:29:40;12.83;;;8.30;;
67272;SDS011;54190;49.770;9.250;2022-07-23T04:32:06;11.33;;;8.07;;
67272;SDS011;54190;49.770;9.250;2022-07-23T04:34:32;9.80;;;8.00;;
67272;SDS011;54190;49.770;9.250;2022-07-23T04:36:58;12.20;;;8.53;;
67272;SDS011;54190;49.770;9.250;2022-07-23T04:39:25;10.80;;;9.23;;
67272;SDS011;54190;49.770;9.250;2022-07-23T04:41:50;11.47;;;8.50;;
67272;SDS011;54190;49.770;9.250;2022-07-23T04:44:16;10.60;;;8.83;;
67272;SDS011;54190;49.770;9.250;2022-07-23T04:46:42;12.10;;;8.83;;
67272;SDS011;54190;49.770;9.250;2022-07-23T04:49:09;12.17;;;9.17;;
67272;SDS011;54190;49.770;9.250;2022-07-23T04:51:35;12.87;;;8.90;;
67272;SDS011;54190;49.770;9.250;2022-07-23T04:54:00;10.97;;;8.27;;
67272;SDS011;54190;49.770;9.250;2022-07-23T04:56:26;11.03;;;8.97;;
67272;SDS011;54190;49.770;9.250;2022-07-23T04:58:52;12.07;;;8.87;;
67272;SDS011;54190;49.770;9.250;2022-07-23T05:01:18;11.07;;;8.30;;
67272;SDS011;54190;49.770;9.250;2022-07-23T05:03:44;11.90;;;8.27;;
67272;SDS011;54190;49.770;9.250;2022-07-23T05:06:10;11.33;;;8.70;;
67272;SDS011;54190;49.770;9.250;2022-07-23T05:08:37;10.57;;;8.07;;
67272;SDS011;54190;49.770;9.250;2022-07-23T05:11:03;12.83;;;8.40;;
67272;SDS011;54190;49.770;9.250;2022-07-23T05:13:29;13.60;;;8.67;;
67272;SDS011;54190;49.770;9.250;2022-07-23T05:15:54;11.83;;;8.40;;
67272;SDS011;54190;49.770;9.250;2022-07-23T05:18:20;12.20;;;9.13;;
67272;SDS011;54190;49.770;9.250;2022-07-23T05:20:47;12.77;;;8.33;;
67272;SDS011;54190;49.770;9.250;2022-07-23T05:23:16;11.03;;;8.27;;
67272;SDS011;54190;49.770;9.250;2022-07-23T05:25:42;9.90;;;7.83;;
67272;SDS011;54190;49.770;9.250;2022-07-23T05:28:08;12.37;;;9.63;;
67272;SDS011;54190;49.770;9.250;2022-07-23T05:30:34;10.63;;;8.40;;
67272;SDS011;54190;49.770;9.250;2022-07-23T05:33:03;12.67;;;9.77;;
67272;SDS011;54190;49.770;9.250;2022-07-23T05:35:29;12.90;;;8.50;;
67272;SDS011;54190;49.770;9.250;2022-07-23T05:38:17;14.90;;;8.80;;
67272;SDS011;54190;49.770;9.250;2022-07-23T05:40:43;14.70;;;8.30;;
67272;SDS011;54190;49.770;9.250;2022-07-23T05:43:08;13.33;;;9.00;;
67272;SDS011;54190;49.770;9.250;2022-07-23T05:45:34;10.63;;;8.87;;
67272;SDS011;54190;49.770;9.250;2022-07-23T05:48:00;10.57;;;8.27;;
67272;SDS011;54190;49.770;9.250;2022-07-23T05:50:32;13.47;;;9.00;;
67272;SDS011;54190;49.770;9.250;2022-07-23T05:53:18;16.70;;;9.83;;
67272;SDS011;54190;49.770;9.250;2022-07-23T05:56:19;11.30;;;9.13;;
67272;SDS011;54190;49.770;9.250;2022-07-23T05:58:45;14.27;;;9.77;;
67272;SDS011;54190;49.770;9.250;2022-07-23T06:01:13;11.70;;;9.33;;
67272;SDS011;54190;49.770;9.250;2022-07-23T06:03:46;16.20;;;9.80;;
67272;SDS011;54190;49.770;9.250;2022-07-23T06:06:11;11.40;;;9.10;;
67272;SDS011;54190;49.770;9.250;2022-07-23T06:08:37;12.00;;;9.00;;
67272;SDS011;54190;49.770;9.250;2022-07-23T06:11:04;13.00;;;9.53;;
67272;SDS011;54190;49.770;9.250;2022-07-23T06:13:29;14.33;;;8.93;;
67272;SDS011;54190;49.770;9.250;2022-07-23T06:15:55;16.30;;;9.50;;
67272;SDS011;54190;49.770;9.250;2022-07-23T06:18:21;12.17;;;9.30;;
67272;SDS011;54190;49.770;9.250;2022-07-23T06:20:46;11.83;;;8.80;;
67272;SDS011;54190;49.770;9.250;2022-07-23T06:23:12;12.60;;;9.70;;
67272;SDS011;54190;49.770;9.250;2022-07-23T06:25:38;13.00;;;9.97;;
67272;SDS011;54190;49.770;9.250;2022-07-23T06:28:04;11.77;;;9.67;;
67272;SDS011;54190;49.770;9.250;2022-07-23T06:30:31;11.63;;;9.37;;
67272;SDS011;54190;49.770;9.250;2022-07-23T06:32:56;14.90;;;10.07;;
67272;SDS011;54190;49.770;9.250;2022-07-23T06:35:22;16.00;;;9.87;;
67272;SDS011;54190;49.770;9.250;2022-07-23T06:37:48;11.80;;;9.90;;
67272;SDS011;54190;49.770;9.250;2022-07-23T06:40:14;11.90;;;9.70;;
67272;SDS011;54190;49.770;9.250;2022-07-23T06:42:40;18.40;;;9.67;;
67272;SDS011;54190;49.770;9.250;2022-07-23T06:45:06;26.57;;;11.17;;
67272;SDS011;54190;49.770;9.250;2022-07-23T06:47:34;18.80;;;9.93;;
67272;SDS011;54190;49.770;9.250;2022-07-23T06:50:00;11.50;;;9.60;;
67272;SDS011;54190;49.770;9.250;2022-07-23T06:52:26;15.63;;;11.00;;
67272;SDS011;54190;49.770;9.250;2022-07-23T06:54:52;12.80;;;10.67;;
67272;SDS011;54190;49.770;9.250;2022-07-23T06:57:18;15.70;;;11.87;;
67272;SDS011;54190;49.770;9.250;2022-07-23T06:59:43;15.60;;;11.07;;
67272;SDS011;54190;49.770;9.250;2022-07-23T07:02:09;12.73;;;10.73;;
67272;SDS011;54190;49.770;9.250;2022-07-23T07:04:35;14.27;;;11.00;;
67272;SDS011;54190;49.770;9.250;2022-07-23T07:07:00;12.83;;;10.27;;
67272;SDS011;54190;49.770;9.250;2022-07-23T07:09:26;13.13;;;11.00;;
67272;SDS011;54190;49.770;9.250;2022-07-23T07:11:52;14.13;;;11.50;;
67272;SDS011;54190;49.770;9.250;2022-07-23T07:14:18;12.73;;;11.00;;
67272;SDS011;54190;49.770;9.250;2022-07-23T07:16:43;15.60;;;11.60;;
67272;SDS011;54190;49.770;9.250;2022-07-23T07:19:09;13.20;;;11.10;;
67272;SDS011;54190;49.770;9.250;2022-07-23T07:21:35;13.27;;;10.40;;
67272;SDS011;54190;49.770;9.250;2022-07-23T07:24:01;13.53;;;10.37;;
67272;SDS011;54190;49.770;9.250;2022-07-23T07:26:27;14.23;;;10.60;;
67272;SDS011;54190;49.770;9.250;2022-07-23T07:28:52;12.03;;;10.37;;
67272;SDS011;54190;49.770;9.250;2022-07-23T07:31:18;12.70;;;10.50;;
67272;SDS011;54190;49.770;9.250;2022-07-23T07:33:44;13.43;;;10.13;;
67272;SDS011;54190;49.770;9.250;2022-07-23T07:36:10;13.37;;;11.00;;
67272;SDS011;54190;49.770;9.250;2022-07-23T07:38:36;13.30;;;10.00;;
67272;SDS011;54190;49.770;9.250;2022-07-23T07:41:01;15.60;;;10.67;;
67272;SDS011;54190;49.770;9.250;2022-07-23T07:43:27;15.20;;;10.90;;
67272;SDS011;54190;49.770;9.250;2022-07-23T07:45:53;12.80;;;10.30;;
67272;SDS011;54190;49.770;9.250;2022-07-23T07:48:19;14.27;;;10.27;;
67272;SDS011;54190;49.770;9.250;2022-07-23T07:50:44;12.83;;;10.30;;
67272;SDS011;54190;49.770;9.250;2022-07-23T07:53:10;16.57;;;11.30;;
67272;SDS011;54190;49.770;9.250;2022-07-23T07:55:36;15.93;;;9.57;;
67272;SDS011;54190;49.770;9.250;2022-07-23T07:58:01;12.10;;;9.87;;
67272;SDS011;54190;49.770;9.250;2022-07-23T08:00:27;13.83;;;10.43;;
67272;SDS011;54190;49.770;9.250;2022-07-23T08:02:53;13.70;;;11.20;;
67272;SDS011;54190;49.770;9.250;2022-07-23T08:05:24;12.83;;;10.13;;
67272;SDS011;54190;49.770;9.250;2022-07-23T08:07:51;11.57;;;9.97;;
67272;SDS011;54190;49.770;9.250;2022-07-23T08:10:17;12.33;;;9.90;;
67272;SDS011;54190;49.770;9.250;2022-07-23T08:12:44;13.00;;;10.97;;
67272;SDS011;54190;49.770;9.250;2022-07-23T08:15:12;12.43;;;9.47;;
67272;SDS011;54190;49.770;9.250;2022-07-23T08:17:39;12.20;;;10.40;;
67272;SDS011;54190;49.770;9.250;2022-07-23T08:20:06;12.63;;;9.33;;
67272;SDS011;54190;49.770;9.250;2022-07-23T08:22:42;18.80;;;11.33;;
67272;SDS011;54190;49.770;9.250;2022-07-23T08:25:22;14.30;;;9.97;;
67272;SDS011;54190;49.770;9.250;2022-07-23T08:27:50;11.87;;;10.60;;
67272;SDS011;54190;49.770;9.250;2022-07-23T08:30:17;12.27;;;10.47;;
67272;SDS011;54190;49.770;9.250;2022-07-23T08:35:17;14.00;;;9.60;;
67272;SDS011;54190;49.770;9.250;2022-07-23T08:37:46;12.10;;;10.10;;
67272;SDS011;54190;49.770;9.250;2022-07-23T08:40:12;13.57;;;10.40;;
67272;SDS011;54190;49.770;9.250;2022-07-23T08:42:38;12.57;;;10.73;;
67272;SDS011;54190;49.770;9.250;2022-07-23T08:45:04;12.70;;;9.87;;
67272;SDS011;54190;49.770;9.250;2022-07-23T08:47:32;13.47;;;9.97;;
67272;SDS011;54190;49.770;9.250;2022-07-23T08:49:59;16.13;;;10.40;;
67272;SDS011;54190;49.770;9.250;2022-07-23T08:52:26;11.13;;;9.13;;
67272;SDS011;54190;49.770;9.250;2022-07-23T08:54:52;11.73;;;9.63;;
67272;SDS011;54190;49.770;9.250;2022-07-23T08:57:19;11.93;;;9.70;;
67272;SDS011;54190;49.770;9.250;2022-07-23T08:59:45;15.53;;;10.03;;
67272;SDS011;54190;49.770;9.250;2022-07-23T09:02:11;16.37;;;10.60;;
67272;SDS011;54190;49.770;9.250;2022-07-23T09:04:37;12.23;;;9.83;;
67272;SDS011;54190;49.770;9.250;2022-07-23T09:07:03;17.10;;;10.50;;
67272;SDS011;54190;49.770;9.250;2022-07-23T09:09:29;11.43;;;9.53;;
67272;SDS011;54190;49.770;9.250;2022-07-23T09:12:06;11.87;;;10.67;;
67272;SDS011;54190;49.770;9.250;2022-07-23T09:14:36;17.17;;;11.80;;
67272;SDS011;54190;49.770;9.250;2022-07-23T09:17:08;12.30;;;10.63;;
67272;SDS011;54190;49.770;9.250;2022-07-23T09:19:35;13.60;;;10.17;;
67272;SDS011;54190;49.770;9.250;2022-07-23T09:30:24;11.87;;;10.00;;
67272;SDS011;54190;49.770;9.250;2022-07-23T09:33:04;11.70;;;10.30;;
67272;SDS011;54190;49.770;9.250;2022-07-23T09:35:50;14.03;;;10.30;;
67272;SDS011;54190;49.770;9.250;2022-07-23T09:38:18;17.70;;;10.37;;
67272;SDS011;54190;49.770;9.250;2022-07-23T09:40:45;10.73;;;9.60;;
67272;SDS011;54190;49.770;9.250;2022-07-23T09:43:12;13.23;;;10.17;;
67272;SDS011;54190;49.770;9.250;2022-07-23T09:45:51;13.90;;;11.57;;
67272;SDS011;54190;49.770;9.250;2022-07-23T09:48:17;15.63;;;11.90;;
67272;SDS011;54190;49.770;9.250;2022-07-23T09:50:43;12.07;;;10.50;;
67272;SDS011;54190;49.770;9.250;2022-07-23T09:53:10;11.90;;;9.63;;
67272;SDS011;54190;49.770;9.250;2022-07-23T09:55:49;12.93;;;10.33;;
67272;SDS011;54190;49.770;9.250;2022-07-23T09:58:17;11.13;;;10.03;;
67272;SDS011;54190;49.770;9.250;2022-07-23T10:00:46;12.63;;;8.77;;
67272;SDS011;54190;49.770;9.250;2022-07-23T10:03:14;10.57;;;8.80;;
67272;SDS011;54190;49.770;9.250;2022-07-23T10:06:10;10.53;;;8.87;;
67272;SDS011;54190;49.770;9.250;2022-07-23T10:08:57;9.87;;;8.87;;
67272;SDS011;54190;49.770;9.250;2022-07-23T10:11:45;10.80;;;9.43;;
67272;SDS011;54190;49.770;9.250;2022-07-23T10:14:27;9.87;;;8.87;;
67272;SDS011;54190;49.770;9.250;2022-07-23T10:16:58;11.27;;;9.43;;
67272;SDS011;54190;49.770;9.250;2022-07-23T10:19:25;10.07;;;9.07;;
67272;SDS011;54190;49.770;9.250;2022-07-23T10:21:58;9.30;;;8.47;;
67272;SDS011;54190;49.770;9.250;2022-07-23T10:29:49;9.57;;;8.57;;
67272;SDS011;54190;49.770;9.250;2022-07-23T10:32:42;9.80;;;8.80;;
67272;SDS011;54190;49.770;9.250;2022-07-23T10:40:53;12.00;;;8.43;;
67272;SDS011;54190;49.770;9.250;2022-07-23T10:43:26;9.40;;;8.43;;
67272;SDS011;54190;49.770;9.250;2022-07-23T10:45:53;11.13;;;8.93;;
67272;SDS011;54190;49.770;9.250;2022-07-23T10:48:20;10.93;;;8.67;;
67272;SDS011;54190;49.770;9.250;2022-07-23T10:51:07;10.23;;;9.10;;
67272;SDS011;54190;49.770;9.250;2022-07-23T10:56:16;9.80;;;8.90;;
67272;SDS011;54190;49.770;9.250;2022-07-23T10:59:03;9.50;;;8.20;;
67272;SDS011;54190;49.770;9.250;2022-07-23T11:01:33;9.50;;;8.53;;
67272;SDS011;54190;49.770;9.250;2022-07-23T11:04:01;10.00;;;9.00;;
67272;SDS011;54190;49.770;9.250;2022-07-23T11:09:23;10.00;;;8.97;;
67272;SDS011;54190;49.770;9.250;2022-07-23T11:20:17;11.03;;;9.90;;
67272;SDS011;54190;49.770;9.250;2022-07-23T11:25:13;10.73;;;9.10;;
67272;SDS011;54190;49.770;9.250;2022-07-23T11:27:53;9.73;;;8.77;;
67272;SDS011;54190;49.770;9.250;2022-07-23T11:33:38;9.97;;;8.97;;
67272;SDS011;54190;49.770;9.250;2022-07-23T11:35:42;9.97;;;9.00;;
67272;SDS011;54190;49.770;9.250;2022-07-23T11:38:16;12.40;;;9.53;;
67272;SDS011;54190;49.770;9.250;2022-07-23T11:40:45;10.50;;;8.47;;
67272;SDS011;54190;49.770;9.250;2022-07-23T11:43:13;9.77;;;8.83;;
67272;SDS011;54190;49.770;9.250;2022-07-23T11:45:47;11.10;;;10.00;;
67272;SDS011;54190;49.770;9.250;2022-07-23T11:48:22;10.23;;;9.17;;
67272;SDS011;54190;49.770;9.250;2022-07-23T11:50:51;9.83;;;8.80;;
67272;SDS011;54190;49.770;9.250;2022-07-23T11:55:54;9.30;;;8.50;;
67272;SDS011;54190;49.770;9.250;2022-07-23T11:58:27;9.17;;;8.17;;
67272;SDS011;54190;49.770;9.250;2022-07-23T12:00:54;9.70;;;8.07;;
67272;SDS011;54190;49.770;9.250;2022-07-23T12:03:20;11.53;;;8.07;;
67272;SDS011;54190;49.770;9.250;2022-07-23T12:05:46;8.40;;;7.60;;
67272;SDS011;54190;49.770;9.250;2022-07-23T12:08:12;9.17;;;8.27;;
67272;SDS011;54190;49.770;9.250;2022-07-23T12:10:42;9.20;;;8.17;;
67272;SDS011;54190;49.770;9.250;2022-07-23T12:13:10;9.70;;;8.70;;
67272;SDS011;54190;49.770;9.250;2022-07-23T12:15:42;13.43;;;7.97;;
67272;SDS011;54190;49.770;9.250;2022-07-23T12:18:20;9.33;;;8.43;;
67272;SDS011;54190;49.770;9.250;2022-07-23T12:20:48;12.67;;;8.70;;
67272;SDS011;54190;49.770;9.250;2022-07-23T12:23:16;8.83;;;7.93;;
67272;SDS011;54190;49.770;9.250;2022-07-23T12:25:44;10.40;;;8.20;;
67272;SDS011;54190;49.770;9.250;2022-07-23T12:28:13;10.23;;;9.23;;
67272;SDS011;54190;49.770;9.250;2022-07-23T12:30:47;9.10;;;8.27;;
67272;SDS011;54190;49.770;9.250;2022-07-23T12:35:53;10.67;;;8.23;;
67272;SDS011;54190;49.770;9.250;2022-07-23T12:38:21;9.50;;;8.13;;
67272;SDS011;54190;49.770;9.250;2022-07-23T12:40:55;9.33;;;8.43;;
67272;SDS011;54190;49.770;9.250;2022-07-23T12:43:24;11.63;;;9.80;;
67272;SDS011;54190;49.770;9.250;2022-07-23T12:48:28;8.10;;;6.90;;
67272;SDS011;54190;49.770;9.250;2022-07-23T12:51:02;8.97;;;7.40;;
67272;SDS011;54190;49.770;9.250;2022-07-23T12:53:38;9.03;;;7.60;;
67272;SDS011;54190;49.770;9.250;2022-07-23T12:56:09;15.80;;;8.10;;
67272;SDS011;54190;49.770;9.250;2022-07-23T13:01:09;7.90;;;7.10;;
67272;SDS011;54190;49.770;9.250;2022-07-23T13:03:57;9.17;;;7.40;;
67272;SDS011;54190;49.770;9.250;2022-07-23T13:06:23;8.17;;;7.37;;
67272;SDS011;54190;49.770;9.250;2022-07-23T13:08:49;8.13;;;6.80;;
67272;SDS011;54190;49.770;9.250;2022-07-23T13:11:15;7.70;;;6.90;;
67272;SDS011;54190;49.770;9.250;2022-07-23T13:13:41;7.60;;;6.90;;
67272;SDS011;54190;49.770;9.250;2022-07-23T13:16:06;9.60;;;7.80;;
67272;SDS011;54190;49.770;9.250;2022-07-23T13:18:32;8.33;;;7.10;;
67272;SDS011;54190;49.770;9.250;2022-07-23T13:20:58;7.83;;;7.13;;
67272;SDS011;54190;49.770;9.250;2022-07-23T13:23:24;8.33;;;7.30;;
67272;SDS011;54190;49.770;9.250;2022-07-23T13:25:50;8.80;;;7.40;;
67272;SDS011;54190;49.770;9.250;2022-07-23T13:28:16;7.60;;;6.80;;
67272;SDS011;54190;49.770;9.250;2022-07-23T13:30:45;7.70;;;7.00;;
67272;SDS011;54190;49.770;9.250;2022-07-23T13:33:12;9.60;;;7.40;;
67272;SDS011;54190;49.770;9.250;2022-07-23T13:35:38;8.47;;;7.03;;
67272;SDS011;54190;49.770;9.250;2022-07-23T13:38:04;8.60;;;6.90;;
67272;SDS011;54190;49.770;9.250;2022-07-23T13:40:33;8.50;;;7.67;;
67272;SDS011;54190;49.770;9.250;2022-07-23T13:43:04;8.20;;;6.70;;
67272;SDS011;54190;49.770;9.250;2022-07-23T13:45:32;7.33;;;6.63;;
67272;SDS011;54190;49.770;9.250;2022-07-23T13:47:58;7.80;;;6.40;;
67272;SDS011;54190;49.770;9.250;2022-07-23T13:50:24;7.57;;;6.70;;
67272;SDS011;54190;49.770;9.250;2022-07-23T13:52:49;8.13;;;7.33;;
67272;SDS011;54190;49.770;9.250;2022-07-23T13:55:15;9.80;;;7.17;;
67272;SDS011;54190;49.770;9.250;2022-07-23T13:57:41;7.93;;;7.13;;
67272;SDS011;54190;49.770;9.250;2022-07-23T14:00:07;7.83;;;7.13;;
67272;SDS011;54190;49.770;9.250;2022-07-23T14:02:36;7.67;;;6.67;;
67272;SDS011;54190;49.770;9.250;2022-07-23T14:05:03;9.17;;;7.27;;
67272;SDS011;54190;49.770;9.250;2022-07-23T14:07:30;7.60;;;6.83;;
67272;SDS011;54190;49.770;9.250;2022-07-23T14:09:56;7.23;;;6.53;;
67272;SDS011;54190;49.770;9.250;2022-07-23T14:12:21;7.07;;;6.37;;
67272;SDS011;54190;49.770;9.250;2022-07-23T14:14:47;7.10;;;6.50;;
67272;SDS011;54190;49.770;9.250;2022-07-23T14:17:12;9.53;;;6.17;;
67272;SDS011;54190;49.770;9.250;2022-07-23T14:19:38;7.23;;;6.53;;
67272;SDS011;54190;49.770;9.250;2022-07-23T14:22:04;7.13;;;6.37;;
67272;SDS011;54190;49.770;9.250;2022-07-23T14:24:30;8.17;;;7.30;;
67272;SDS011;54190;49.770;9.250;2022-07-23T14:26:55;8.77;;;7.10;;
67272;SDS011;54190;49.770;9.250;2022-07-23T14:29:21;7.70;;;6.90;;
67272;SDS011;54190;49.770;9.250;2022-07-23T14:31:47;7.70;;;6.90;;
67272;SDS011;54190;49.770;9.250;2022-07-23T14:34:13;8.27;;;6.93;;
67272;SDS011;54190;49.770;9.250;2022-07-23T14:36:39;8.13;;;7.30;;
67272;SDS011;54190;49.770;9.250;2022-07-23T14:39:05;9.20;;;7.70;;
67272;SDS011;54190;49.770;9.250;2022-07-23T14:41:34;7.93;;;7.23;;
67272;SDS011;54190;49.770;9.250;2022-07-23T14:44:01;8.50;;;7.53;;
67272;SDS011;54190;49.770;9.250;2022-07-23T14:46:27;8.10;;;7.30;;
67272;SDS011;54190;49.770;9.250;2022-07-23T14:48:53;7.70;;;6.70;;
67272;SDS011;54190;49.770;9.250;2022-07-23T14:51:19;9.33;;;7.17;;
67272;SDS011;54190;49.770;9.250;2022-07-23T14:53:44;7.90;;;7.10;;
67272;SDS011;54190;49.770;9.250;2022-07-23T14:56:10;7.60;;;6.90;;
67272;SDS011;54190;49.770;9.250;2022-07-23T14:58:35;7.67;;;6.87;;
67272;SDS011;54190;49.770;9.250;2022-07-23T15:01:01;8.00;;;7.20;;
67272;SDS011;54190;49.770;9.250;2022-07-23T15:03:27;7.37;;;6.73;;
67272;SDS011;54190;49.770;9.250;2022-07-23T15:05:52;7.60;;;6.80;;
67272;SDS011;54190;49.770;9.250;2022-07-23T15:08:18;7.50;;;6.80;;
67272;SDS011;54190;49.770;9.250;2022-07-23T15:10:44;7.40;;;6.67;;
67272;SDS011;54190;49.770;9.250;2022-07-23T15:13:09;7.43;;;6.83;;
67272;SDS011;54190;49.770;9.250;2022-07-23T15:15:35;7.87;;;7.10;;
67272;SDS011;54190;49.770;9.250;2022-07-23T15:18:01;7.97;;;6.93;;
67272;SDS011;54190;49.770;9.250;2022-07-23T15:20:27;6.93;;;6.33;;
67272;SDS011;54190;49.770;9.250;2022-07-23T15:22:52;7.90;;;6.63;;
67272;SDS011;54190;49.770;9.250;2022-07-23T15:25:18;8.40;;;7.00;;
67272;SDS011;54190;49.770;9.250;2022-07-23T15:27:44;7.57;;;6.87;;
67272;SDS011;54190;49.770;9.250;2022-07-23T15:30:09;7.80;;;6.90;;